Batumi International Airport
UGSB : rendu visible

Aérodrome :











RETROUVEZ-NOUS SUR...

 
LOGIN :

S'inscrire | Disclaimer

   EN    FR    IT 

 









Légende :    VFR   VFR Marginal   IFR   IFR Intensif   IFR Très Intensif
Visi : 
Plafond : 
>= 8 km
>= 3000ft
5 à 8 km
1000 à 3000 ft
1500m à 5 km
500 à 1000 ft
800 à 1500m
200 à 500 ft
< 800m
< 200 ft
Symboles :   Orages  Brouillard  Fortes neiges  Fortes précipitations  Vent > 20 kt







- Altitude de l'aérodrome : 105 ft
- Code IATA : BUS


UGSB - Batumi International

DERNIER METAR :
  • 050430Z 24007KT 9999 FEW016 BKN022CB 14/13 Q1011 R13/29//55 NOSIG

METARs EXPIRÉS :
  • 050400Z 21005KT 9999 BKN017CB 14/13 Q1011 R13/29//55 NOSIG
  • 050330Z 16002KT 9999 FEW016 SCT026CB 14/13 Q1010 R13/29//55 NOSIG
  • 050300Z VRB01KT 9999 FEW016 SCT027CB 14/12 Q1010 R13/29//55 NOSIG
  • 050230Z 10004KT 080V150 9999 FEW016 SCT027 13/12 Q1009 R13/29//55 NOSIG
  • 050200Z 08004KT 9999 SCT030 13/13 Q1009 R13/29//55 NOSIG

TAF TAF UGSB
Valide du 05 à 00h jusqu'au 06 à 00h UTC


042300Z 0500/0524 24007KT 9999 FEW030 SCT080 TX18/0510Z TN13/0500Z
TEMPO 0500/0504 SCT005 BKN030
PROB30
TEMPO 0500/0504 3000 BR OVC004
BECMG 0510/0512 SCT025 BKN070
TEMPO 0512/0518 4000 SHRA SCT010 BKN025CB
TEMPO 0518/0524 VRB13KT 3000 TSRA SCT009 BKN020CB
FIR UGGG / Asie



MET'MAP, la Météo Aéronautique d'un coup d'oeil ! - Copyright ORBIFLY Décembre 2007 - Disclaimer

ORBIFLY MET'MAP TEAM :

Programmation & Développement : Alexandra Zaïnal
Conception & Développement : Baudouin d'Aumeries
Co-Programmation & Développement : Marc-Olivier Méhu
Soutien technique & logistique : Manuel Goepfert

Contact : metmap@orbifly.com




SOURCES & CREDITS :

   NOAA       Earth
Advisory